createdAt,value
2018-10-17T00:02:03.322Z,36.97
2018-10-17T00:04:51.104Z,37.93
2018-10-17T00:07:39.572Z,37.33
2018-10-17T00:10:27.572Z,41.90
2018-10-17T00:13:16.410Z,39.70
2018-10-17T00:16:05.758Z,38.10
2018-10-17T00:18:54.358Z,44.53
2018-10-17T00:21:42.613Z,40.93
2018-10-17T00:24:31.112Z,45.17
2018-10-17T00:27:19.020Z,47.37
2018-10-17T00:30:07.395Z,43.93
2018-10-17T00:32:55.835Z,43.40
2018-10-17T00:35:44.293Z,42.30
2018-10-17T00:38:32.002Z,34.63
2018-10-17T00:41:20.067Z,33.73
2018-10-17T00:44:08.831Z,34.67
2018-10-17T00:46:58.259Z,34.57
2018-10-17T00:49:46.715Z,35.93
2018-10-17T00:52:34.432Z,36.57
2018-10-17T00:55:22.723Z,35.15
2018-10-17T00:58:11.029Z,33.07
2018-10-17T01:01:01.732Z,35.60
2018-10-17T01:03:50.124Z,38.13
2018-10-17T01:06:38.364Z,37.47
2018-10-17T01:09:26.607Z,39.60
2018-10-17T01:12:14.547Z,39.03
2018-10-17T01:16:30.552Z,41.97
2018-10-17T01:19:18.376Z,37.63
2018-10-17T01:22:06.934Z,36.67
2018-10-17T01:24:54.893Z,37.10
2018-10-17T01:27:42.803Z,38.83
2018-10-17T01:30:30.997Z,35.50
2018-10-17T01:33:19.606Z,37.47
2018-10-17T01:36:10.814Z,39.50
2018-10-17T01:38:59.939Z,39.60
2018-10-17T01:41:49.352Z,37.83
2018-10-17T01:44:38.186Z,41.00
2018-10-17T01:47:25.711Z,42.10
2018-10-17T01:50:13.836Z,42.00
2018-10-17T01:53:01.724Z,40.07
2018-10-17T01:55:50.275Z,34.70
2018-10-17T01:58:39.500Z,43.47
2018-10-17T02:01:29.734Z,52.57
2018-10-17T02:04:17.010Z,38.57
2018-10-17T02:07:05.866Z,48.17
2018-10-17T02:09:54.106Z,47.23
2018-10-17T02:12:42.567Z,53.10
2018-10-17T02:15:30.637Z,54.13
2018-10-17T02:18:19.165Z,55.67
2018-10-17T02:21:07.020Z,52.47
2018-10-17T02:23:55.665Z,53.80
2018-10-17T02:26:45.355Z,53.70
2018-10-17T02:29:33.396Z,52.80
2018-10-17T02:32:21.616Z,53.70
2018-10-17T02:35:14.749Z,53.27
2018-10-17T02:38:02.404Z,53.13
2018-10-17T02:40:50.466Z,53.57
2018-10-17T02:43:38.299Z,50.90
2018-10-17T02:46:27.027Z,47.43
2018-10-17T02:49:16.380Z,49.07
2018-10-17T02:52:04.445Z,50.40
2018-10-17T02:54:51.866Z,53.83
2018-10-17T02:57:40.649Z,53.90
2018-10-17T03:00:30.864Z,54.13
2018-10-17T03:03:18.656Z,52.00
2018-10-17T03:06:07.405Z,48.50
2018-10-17T03:08:54.833Z,46.63
2018-10-17T03:11:44.740Z,44.53
2018-10-17T03:14:33.139Z,42.77
2018-10-17T03:17:21.546Z,43.90
2018-10-17T03:20:11.827Z,42.23
2018-10-17T03:23:03.817Z,43.47
2018-10-17T03:25:52.389Z,42.47
2018-10-17T03:28:40.332Z,43.80
2018-10-17T03:31:29.414Z,44.03
2018-10-17T03:34:17.772Z,40.83
2018-10-17T03:37:06.597Z,43.73
2018-10-17T03:39:54.946Z,43.43
2018-10-17T03:42:43.690Z,44.23
2018-10-17T03:45:31.711Z,42.40
2018-10-17T03:48:22.672Z,40.57
2018-10-17T03:51:12.867Z,42.10
2018-10-17T03:54:01.614Z,41.63
2018-10-17T03:56:50.117Z,41.57
2018-10-17T03:59:38.592Z,42.07
2018-10-17T04:02:26.021Z,40.10
2018-10-17T04:05:14.249Z,37.17
2018-10-17T04:08:01.678Z,35.07
2018-10-17T04:10:50.262Z,35.50
2018-10-17T04:13:38.140Z,36.60
2018-10-17T04:16:26.856Z,35.90
2018-10-17T04:19:15.466Z,34.70
2018-10-17T04:22:05.600Z,34.17
2018-10-17T04:24:54.068Z,35.77
2018-10-17T04:27:41.754Z,34.70
2018-10-17T04:30:29.678Z,34.57
2018-10-17T04:33:17.967Z,32.40
2018-10-17T04:36:10.446Z,32.63
2018-10-17T04:39:05.306Z,33.50
2018-10-17T04:41:53.947Z,32.30
2018-10-17T04:44:42.875Z,33.13
2018-10-17T04:47:44.866Z,31.53
2018-10-17T04:50:40.371Z,30.77
2018-10-17T04:53:47.799Z,30.93
2018-10-17T04:56:37.041Z,32.50
2018-10-17T04:59:33.192Z,30.93
2018-10-17T05:06:51.562Z,30.20
2018-10-17T05:09:46.636Z,29.27
2018-10-17T05:12:37.589Z,28.87
2018-10-17T05:15:35.383Z,28.53
2018-10-17T05:18:34.988Z,32.38
2018-10-17T05:24:46.681Z,28.07
2018-10-17T05:27:42.519Z,28.70
2018-10-17T05:30:40.296Z,27.87
2018-10-17T05:33:41.428Z,28.23
2018-10-17T05:36:33.291Z,28.40
2018-10-17T05:39:23.763Z,30.73
2018-10-17T05:42:17.438Z,27.30
2018-10-17T05:45:12.489Z,27.93
2018-10-17T05:51:24.635Z,25.83
2018-10-17T05:54:18.750Z,26.30
2018-10-17T05:57:16.569Z,25.33
2018-10-17T06:00:53.298Z,28.57
2018-10-17T06:03:55.800Z,24.43
2018-10-17T06:09:12.259Z,24.10
2018-10-17T06:12:02.554Z,23.67
2018-10-17T06:15:04.460Z,22.77
2018-10-17T06:18:33.441Z,23.17
2018-10-17T06:25:17.958Z,22.60
2018-10-17T06:28:11.047Z,21.93
2018-10-17T06:31:00.448Z,21.05
2018-10-17T06:33:51.134Z,21.10
2018-10-17T06:36:46.014Z,19.83
2018-10-17T06:39:40.055Z,19.73
2018-10-17T06:56:48.873Z,19.50
2018-10-17T07:14:20.470Z,19.83
2018-10-17T07:20:26.962Z,20.23
2018-10-17T07:23:29.387Z,20.50
2018-10-17T07:26:23.956Z,20.02
2018-10-17T07:29:15.893Z,20.57
2018-10-17T07:32:17.725Z,20.10
2018-10-17T07:35:10.757Z,21.27
2018-10-17T07:38:00.481Z,20.17
2018-10-17T07:40:48.619Z,19.37
2018-10-17T07:43:37.457Z,20.10
2018-10-17T07:46:45.289Z,22.37
2018-10-17T07:49:53.436Z,21.63
2018-10-17T07:52:45.744Z,21.73
2018-10-17T07:55:41.571Z,20.92
2018-10-17T08:01:48.438Z,22.40
2018-10-17T08:04:42.256Z,21.63
2018-10-17T08:07:43.758Z,21.63
2018-10-17T08:10:37.979Z,22.13
2018-10-17T08:13:34.807Z,21.43
2018-10-17T08:16:25.387Z,22.77
2018-10-17T08:22:06.405Z,21.83
2018-10-17T08:25:01.621Z,22.07
2018-10-17T08:27:57.117Z,21.95
2018-10-17T08:30:47.800Z,22.80
2018-10-17T08:33:41.418Z,22.40
2018-10-17T08:36:38.202Z,22.65
2018-10-17T08:39:30.924Z,22.27
2018-10-17T08:42:22.169Z,21.97
2018-10-17T08:45:15.863Z,21.73
2018-10-17T08:48:11.463Z,23.53
2018-10-17T08:52:30.549Z,23.50
2018-10-17T08:55:21.311Z,22.52
2018-10-17T08:58:13.649Z,23.07
2018-10-17T09:01:08.513Z,22.50
2018-10-17T09:04:06.217Z,23.03
2018-10-17T09:07:04.300Z,23.52
2018-10-17T09:09:56.712Z,23.03
2018-10-17T09:12:49.803Z,22.77
2018-10-17T09:18:04.345Z,25.00
2018-10-17T09:20:54.570Z,22.45
2018-10-17T09:23:45.262Z,22.40
2018-10-17T09:26:37.498Z,21.30
2018-10-17T09:29:29.444Z,22.13
2018-10-17T09:35:23.256Z,21.80
2018-10-17T09:38:40.483Z,22.65
2018-10-17T09:45:29.804Z,22.47
2018-10-17T09:48:17.739Z,21.77
2018-10-17T09:51:06.719Z,23.02
2018-10-17T09:53:54.020Z,23.30
2018-10-17T09:56:41.747Z,23.30
2018-10-17T09:59:32.986Z,23.12
2018-10-17T10:02:20.791Z,23.87
2018-10-17T10:05:08.468Z,23.20
2018-10-17T10:07:54.721Z,22.70
2018-10-17T10:10:43.759Z,23.40
2018-10-17T10:13:32.461Z,24.47
2018-10-17T10:16:20.635Z,23.10
2018-10-17T10:19:08.609Z,23.80
2018-10-17T10:21:55.399Z,22.25
2018-10-17T10:24:48.483Z,23.43
2018-10-17T10:27:44.607Z,22.98
2018-10-17T10:30:35.424Z,23.63
2018-10-17T10:33:22.982Z,22.63
2018-10-17T10:36:13.033Z,23.37
2018-10-17T10:39:01.068Z,23.02
2018-10-17T10:41:49.280Z,22.73
2018-10-17T10:44:38.879Z,22.20
2018-10-17T10:47:27.284Z,22.30
2018-10-17T10:50:15.654Z,22.73
2018-10-17T10:53:05.604Z,22.30
2018-10-17T10:55:57.374Z,22.70
2018-10-17T10:58:45.567Z,23.22
2018-10-17T11:01:32.688Z,22.93
2018-10-17T11:04:23.514Z,23.18
2018-10-17T11:07:12.695Z,25.03
2018-10-17T11:10:01.026Z,23.33
2018-10-17T11:12:50.142Z,23.47
2018-10-17T11:15:38.553Z,22.47
2018-10-17T11:18:28.449Z,22.45
2018-10-17T11:21:21.324Z,22.80
2018-10-17T11:24:13.210Z,25.12
2018-10-17T11:27:11.992Z,25.75
2018-10-17T11:30:04.325Z,22.77
2018-10-17T11:33:01.560Z,23.53
2018-10-17T11:36:00.644Z,22.97
2018-10-17T11:39:01.015Z,24.37
2018-10-17T11:41:54.080Z,25.10
2018-10-17T11:48:15.002Z,27.30
2018-10-17T11:51:09.264Z,27.30
2018-10-17T12:03:49.379Z,25.60
2018-10-17T12:06:44.256Z,24.12
2018-10-17T12:09:37.086Z,24.97
2018-10-17T12:12:28.657Z,25.40
2018-10-17T12:15:26.829Z,25.53
2018-10-17T12:18:36.834Z,25.57
2018-10-17T12:21:38.591Z,25.27
2018-10-17T12:24:39.552Z,26.25
2018-10-17T12:27:32.055Z,26.10
2018-10-17T12:30:26.814Z,27.07
2018-10-17T12:33:17.791Z,26.35
2018-10-17T12:36:08.890Z,26.45
2018-10-17T12:39:01.002Z,27.77
2018-10-17T12:41:51.220Z,28.63
2018-10-17T12:44:44.635Z,28.65
2018-10-17T12:47:36.855Z,28.47
2018-10-17T12:50:34.073Z,29.90
2018-10-17T12:53:24.493Z,30.77
2018-10-17T12:56:15.513Z,31.23
2018-10-17T12:59:08.053Z,30.27
2018-10-17T13:01:58.955Z,30.53
2018-10-17T13:04:49.887Z,30.80
2018-10-17T13:07:40.903Z,31.93
2018-10-17T13:10:31.049Z,31.57
2018-10-17T13:13:24.965Z,34.30
2018-10-17T13:16:14.495Z,33.03
2018-10-17T13:19:06.478Z,32.28
2018-10-17T13:21:55.456Z,32.77
2018-10-17T13:24:56.519Z,34.63
2018-10-17T13:27:47.630Z,34.13
2018-10-17T13:30:39.162Z,34.60
2018-10-17T13:33:32.813Z,35.13
2018-10-17T13:36:23.679Z,34.43
2018-10-17T13:39:16.890Z,35.83
2018-10-17T13:42:07.429Z,34.95
2018-10-17T13:44:57.340Z,35.73
2018-10-17T13:47:47.966Z,35.20
2018-10-17T13:50:39.083Z,34.47
2018-10-17T13:53:27.724Z,36.17
2018-10-17T13:56:17.857Z,34.53
2018-10-17T13:59:06.674Z,36.07
2018-10-17T14:01:56.425Z,35.60
2018-10-17T14:04:50.135Z,35.03
2018-10-17T14:07:40.742Z,37.38
2018-10-17T14:10:31.578Z,35.87
2018-10-17T14:13:22.017Z,35.90
2018-10-17T14:16:13.600Z,35.48
2018-10-17T14:19:03.299Z,34.97
2018-10-17T14:21:56.170Z,34.35
2018-10-17T14:24:46.901Z,35.15
2018-10-17T14:27:36.781Z,36.70
2018-10-17T14:30:27.632Z,35.40
2018-10-17T14:33:20.607Z,34.87
2018-10-17T14:39:08.799Z,35.83
2018-10-17T14:41:59.297Z,34.30
2018-10-17T14:44:52.735Z,33.60
2018-10-17T14:47:45.914Z,35.55
2018-10-17T14:50:37.772Z,35.27
2018-10-17T14:53:30.626Z,34.35
2018-10-17T14:56:22.328Z,35.07
2018-10-17T14:59:15.780Z,36.03
2018-10-17T15:02:12.835Z,35.97
2018-10-17T15:05:05.533Z,35.10
2018-10-17T15:07:59.471Z,35.45
2018-10-17T15:10:50.686Z,35.10
2018-10-17T15:13:41.670Z,34.23
2018-10-17T15:16:33.430Z,35.03
2018-10-17T15:19:28.012Z,34.08
2018-10-17T15:22:19.744Z,35.97
2018-10-17T15:25:11.146Z,35.53
2018-10-17T15:28:04.275Z,36.03
2018-10-17T15:30:57.796Z,37.33
2018-10-17T15:33:52.150Z,36.50
2018-10-17T15:36:45.891Z,35.75
2018-10-17T15:39:39.165Z,34.77
2018-10-17T15:42:31.161Z,35.50
2018-10-17T15:45:21.457Z,35.73
2018-10-17T15:48:14.001Z,35.43
2018-10-17T15:51:04.006Z,36.00
2018-10-17T15:53:56.943Z,36.07
2018-10-17T15:56:53.406Z,36.70
2018-10-17T15:59:46.931Z,35.95
2018-10-17T16:02:41.942Z,37.27
2018-10-17T16:05:33.793Z,35.30
2018-10-17T16:08:27.693Z,35.37
2018-10-17T16:11:21.315Z,35.30
2018-10-17T16:14:13.573Z,34.73
2018-10-17T16:17:05.487Z,36.40
2018-10-17T16:19:59.553Z,35.97
2018-10-17T16:22:52.751Z,36.47
2018-10-17T16:25:49.006Z,35.93
2018-10-17T16:28:41.431Z,35.87
2018-10-17T16:31:35.609Z,36.90
2018-10-17T16:34:28.372Z,36.50
2018-10-17T16:37:21.520Z,37.37
2018-10-17T16:40:14.936Z,36.60
2018-10-17T16:43:10.104Z,36.13
2018-10-17T16:46:01.937Z,36.40
2018-10-17T16:48:53.801Z,37.73
2018-10-17T16:51:46.334Z,36.63
2018-10-17T16:54:39.617Z,35.57
2018-10-17T16:57:32.622Z,36.87
2018-10-17T17:00:29.297Z,36.37
2018-10-17T17:03:23.976Z,39.13
2018-10-17T17:06:16.735Z,36.47
2018-10-17T17:09:10.641Z,37.37
2018-10-17T17:12:04.439Z,35.80
2018-10-17T17:14:58.499Z,36.43
2018-10-17T17:17:51.635Z,33.77
2018-10-17T17:20:45.324Z,36.47
2018-10-17T17:23:39.797Z,35.60
2018-10-17T17:26:32.554Z,35.87
2018-10-17T17:29:26.091Z,35.50
2018-10-17T17:32:18.034Z,36.27
2018-10-17T17:35:10.085Z,34.90
2018-10-17T17:38:01.732Z,33.90
2018-10-17T17:40:50.853Z,33.77
2018-10-17T17:43:39.817Z,35.07
2018-10-17T17:46:29.326Z,33.53
2018-10-17T17:49:18.637Z,34.47
2018-10-17T17:52:09.073Z,34.60
2018-10-17T17:55:01.562Z,33.18
2018-10-17T17:57:51.219Z,33.40
2018-10-17T18:00:40.118Z,33.40
2018-10-17T18:03:28.447Z,33.13
2018-10-17T18:06:17.448Z,34.07
2018-10-17T18:09:06.060Z,33.10
2018-10-17T18:11:57.213Z,35.87
2018-10-17T18:14:47.916Z,32.50
2018-10-17T18:17:39.259Z,32.57
2018-10-17T18:20:30.222Z,33.03
2018-10-17T18:23:22.460Z,33.80
2018-10-17T18:26:14.457Z,33.40
2018-10-17T18:29:06.114Z,33.23
2018-10-17T18:31:54.926Z,31.70
2018-10-17T18:34:44.766Z,32.63
2018-10-17T18:37:33.355Z,33.53
2018-10-17T18:40:21.591Z,33.00
2018-10-17T18:43:14.720Z,32.67
2018-10-17T18:46:07.063Z,31.30
2018-10-17T18:48:55.511Z,32.10
2018-10-17T18:51:43.208Z,33.50
2018-10-17T18:54:31.687Z,31.30
2018-10-17T18:57:21.211Z,31.77
2018-10-17T19:00:10.177Z,31.53
2018-10-17T19:02:58.183Z,32.00
2018-10-17T19:05:46.192Z,31.67
2018-10-17T19:08:34.352Z,31.80
2018-10-17T19:11:27.390Z,29.93
2018-10-17T19:14:19.979Z,30.63
2018-10-17T19:17:11.289Z,30.93
2018-10-17T19:20:03.221Z,31.40
2018-10-17T19:22:55.061Z,31.63
2018-10-17T19:25:46.498Z,30.17
2018-10-17T19:28:37.438Z,30.57
2018-10-17T19:31:28.277Z,30.10
2018-10-17T19:34:21.122Z,30.50
2018-10-17T19:37:15.833Z,29.77
2018-10-17T19:40:07.628Z,29.17
2018-10-17T19:42:58.600Z,29.07
2018-10-17T19:45:50.353Z,30.03
2018-10-17T19:48:38.553Z,29.47
2018-10-17T19:51:27.039Z,30.43
2018-10-17T19:54:15.082Z,30.07
2018-10-17T19:57:03.726Z,29.83
2018-10-17T19:59:53.530Z,29.07
2018-10-17T20:02:45.380Z,30.30
2018-10-17T20:05:34.130Z,30.53
2018-10-17T20:08:22.832Z,29.17
2018-10-17T20:11:13.866Z,29.10
2018-10-17T20:14:02.553Z,29.07
2018-10-17T20:16:53.421Z,29.20
2018-10-17T20:19:44.813Z,29.37
2018-10-17T20:22:36.217Z,30.37
2018-10-17T20:25:27.177Z,29.70
2018-10-17T20:28:18.420Z,30.23
2018-10-17T20:31:10.193Z,28.87
2018-10-17T20:34:00.735Z,29.47
2018-10-17T20:36:50.660Z,28.53
2018-10-17T20:39:41.280Z,29.37
2018-10-17T20:42:31.386Z,28.73
2018-10-17T20:45:21.529Z,29.17
2018-10-17T20:48:12.141Z,29.47
2018-10-17T20:51:02.573Z,28.57
2018-10-17T20:53:53.612Z,30.23
2018-10-17T20:56:42.829Z,29.10
2018-10-17T20:59:32.632Z,28.70
2018-10-17T21:02:21.682Z,30.00
2018-10-17T21:05:12.540Z,28.70
2018-10-17T21:08:02.696Z,29.33
2018-10-17T21:10:52.410Z,28.63
2018-10-17T21:13:42.064Z,28.40
2018-10-17T21:16:32.291Z,29.47
2018-10-17T21:19:24.016Z,27.47
2018-10-17T21:22:13.780Z,27.37
2018-10-17T21:25:04.127Z,28.33
2018-10-17T21:27:54.439Z,28.17
2018-10-17T21:30:49.198Z,27.73
2018-10-17T21:33:41.165Z,28.20
2018-10-17T21:36:32.045Z,27.50
2018-10-17T21:39:22.512Z,27.70
2018-10-17T21:42:13.706Z,29.37
2018-10-17T21:45:03.831Z,27.93
2018-10-17T21:47:53.787Z,28.73
2018-10-17T21:50:43.245Z,28.27
2018-10-17T21:53:32.459Z,28.03
2018-10-17T21:56:21.494Z,26.63
2018-10-17T21:59:11.157Z,27.83
2018-10-17T22:01:59.101Z,27.80
2018-10-17T22:04:48.757Z,26.73
2018-10-17T22:07:39.846Z,27.10
2018-10-17T22:10:29.459Z,26.07
2018-10-17T22:13:20.850Z,28.00
2018-10-17T22:16:10.841Z,26.73
2018-10-17T22:19:01.105Z,26.13
2018-10-17T22:21:50.313Z,27.20
2018-10-17T22:24:41.222Z,26.53
2018-10-17T22:27:32.928Z,26.17
2018-10-17T22:30:23.256Z,27.67
2018-10-17T22:33:14.348Z,26.43
2018-10-17T22:36:05.492Z,25.70
2018-10-17T22:38:56.273Z,25.40
2018-10-17T22:41:45.695Z,26.17
2018-10-17T22:44:35.920Z,26.60
2018-10-17T22:47:25.180Z,26.63
2018-10-17T22:50:14.304Z,25.77
2018-10-17T22:53:05.485Z,25.70
2018-10-17T22:55:56.645Z,25.53
2018-10-17T22:58:47.265Z,25.50
2018-10-17T23:01:38.386Z,26.20
2018-10-17T23:04:26.731Z,26.60
2018-10-17T23:07:14.768Z,25.73
2018-10-17T23:10:03.166Z,24.93
2018-10-17T23:12:50.829Z,25.07
2018-10-17T23:15:41.240Z,25.90
2018-10-17T23:18:29.810Z,25.47
2018-10-17T23:21:17.343Z,25.40
2018-10-17T23:24:05.672Z,24.43
2018-10-17T23:26:53.163Z,24.90
2018-10-17T23:29:40.870Z,23.93
2018-10-17T23:32:28.832Z,24.50
2018-10-17T23:35:16.658Z,24.93
2018-10-17T23:38:04.362Z,24.87
2018-10-17T23:40:55.070Z,24.60
2018-10-17T23:43:45.479Z,24.47
2018-10-17T23:46:37.643Z,25.20
2018-10-17T23:49:28.117Z,24.10
2018-10-17T23:52:17.120Z,27.23
2018-10-17T23:55:05.389Z,26.90
2018-10-17T23:57:53.061Z,28.07
